Time;durP1;ratioP1;P1;durP2;ratioP2;P2;SDS_P1;SDS_P2;PMS_P1;PMS_P2;Temp;Humidity;BMP_temperature;BMP_pressure;BME280_temperature;BME280_humidity;BME280_pressure;Samples;Min_cycle;Max_cycle;Signal;HPM_P1;HPM_P2
2022/12/30 00:01:35;;;;;;;61.15;6.55;;;;;;;;;;6149730;23;20057;-83
2022/12/30 00:04:09;;;;;;;51.38;5.72;;;;;;;;;;6148736;23;20025;-82
2022/12/30 00:06:36;;;;;;;55.53;6.35;;;;;;;;;;6147898;23;20526;-83
2022/12/30 00:09:04;;;;;;;50.10;6.07;;;;;;;;;;6149717;23;20507;-83
2022/12/30 00:11:37;;;;;;;42.92;6.10;;;;;;;;;;6148969;23;20336;-84
2022/12/30 00:33:06;;;;;;;55.58;5.97;;;;;;;;;;6149238;23;20056;-83
2022/12/30 00:34:10;;;;;;;52.67;5.72;;;;;;;;;;6149090;23;20025;-83
2022/12/30 00:36:38;;;;;;;55.42;6.55;;;;;;;;;;6148283;23;20354;-83
2022/12/30 00:39:12;;;;;;;59.95;7.60;;;;;;;;;;6149652;23;20104;-83
2022/12/30 00:44:39;;;;;;;53.67;7.13;;;;;;;;;;6148120;23;20057;-84
2022/12/30 00:47:07;;;;;;;47.80;6.05;;;;;;;;;;6148680;23;20029;-83
2022/12/30 00:58:04;;;;;;;47.28;5.68;;;;;;;;;;6149937;23;20064;-83
2022/12/30 01:00:38;;;;;;;29.00;4.82;;;;;;;;;;6125023;23;20084;-83
2022/12/30 01:03:05;;;;;;;43.28;6.40;;;;;;;;;;6147487;23;20408;-83
2022/12/30 01:05:39;;;;;;;45.83;6.60;;;;;;;;;;6149599;23;20024;-84
2022/12/30 01:08:07;;;;;;;47.65;6.25;;;;;;;;;;6149215;23;20105;-85
2022/12/30 01:10:34;;;;;;;;;;;;;;;;;;6148458;23;20021;-85
2022/12/30 01:13:08;;;;;;;52.70;5.03;;;;;;;;;;6148821;23;19952;-85
2022/12/30 01:15:35;;;;;;;42.97;5.88;;;;;;;;;;6148810;23;20557;-85
2022/12/30 01:18:09;;;;;;;41.53;4.90;;;;;;;;;;6148055;23;20021;-86
2022/12/30 01:20:36;;;;;;;48.40;7.13;;;;;;;;;;6148728;23;20083;-84
2022/12/30 01:23:10;;;;;;;51.35;5.93;;;;;;;;;;6145615;23;20056;-85
2022/12/30 01:25:40;;;;;;;60.92;7.13;;;;;;;;;;6122912;23;20021;-85
2022/12/30 01:28:07;;;;;;;50.25;6.63;;;;;;;;;;6145019;23;20546;-86
2022/12/30 01:30:40;;;;;;;43.40;5.75;;;;;;;;;;6148498;23;20067;-85
2022/12/30 01:33:07;;;;;;;40.33;5.45;;;;;;;;;;6148192;23;20474;-84
2022/12/30 01:35:41;;;;;;;43.28;5.60;;;;;;;;;;6147615;23;20061;-85
2022/12/30 01:38:08;;;;;;;58.03;6.50;;;;;;;;;;6148521;23;20063;-85
2022/12/30 01:40:40;;;;;;;46.67;6.07;;;;;;;;;;6148183;23;20408;-85
2022/12/30 01:43:26;;;;;;;37.42;5.13;;;;;;;;;;6124657;23;20049;-84
2022/12/30 01:46:00;;;;;;;33.42;5.28;;;;;;;;;;6148883;23;20022;-84
2022/12/30 01:48:29;;;;;;;39.35;5.95;;;;;;;;;;6148820;23;20029;-85
2022/12/30 01:51:02;;;;;;;36.42;4.88;;;;;;;;;;6148348;23;20104;-85
2022/12/30 01:53:38;;;;;;;44.70;5.72;;;;;;;;;;6147782;23;20029;-85
2022/12/30 01:56:09;;;;;;;48.35;6.40;;;;;;;;;;6149801;23;20399;-85
2022/12/30 01:58:40;;;;;;;55.75;6.50;;;;;;;;;;6149152;23;20030;-84
2022/12/30 02:01:13;;;;;;;45.08;6.40;;;;;;;;;;6149185;23;20053;-85
2022/12/30 02:03:46;;;;;;;44.20;6.97;;;;;;;;;;6149413;23;20022;-85
2022/12/30 02:06:22;;;;;;;61.65;7.63;;;;;;;;;;6148758;23;20060;-86
2022/12/30 02:08:49;;;;;;;47.63;7.20;;;;;;;;;;6148566;23;20037;-84
2022/12/30 02:11:23;;;;;;;35.97;6.30;;;;;;;;;;6148879;23;20278;-86
2022/12/30 02:13:50;;;;;;;;;;;;;;;;;;6149903;23;20028;-84
2022/12/30 02:16:36;;;;;;;46.42;6.63;;;;;;;;;;6148850;23;20003;-85
2022/12/30 02:19:18;;;;;;;62.60;7.70;;;;;;;;;;6148926;23;20045;-85
2022/12/30 02:22:07;;;;;;;39.60;6.32;;;;;;;;;;6149145;23;20358;-85
2022/12/30 02:24:40;;;;;;;61.08;6.03;;;;;;;;;;6147450;23;20022;-85
2022/12/30 02:27:17;;;;;;;42.00;6.32;;;;;;;;;;6149402;23;20048;-84
2022/12/30 02:29:53;;;;;;;41.75;5.90;;;;;;;;;;6147850;23;20108;-84
2022/12/30 02:32:47;;;;;;;43.13;5.60;;;;;;;;;;6148820;23;20104;-84
2022/12/30 02:35:34;;;;;;;46.07;6.00;;;;;;;;;;6149201;23;20108;-84
2022/12/30 02:38:11;;;;;;;38.05;6.15;;;;;;;;;;6148094;23;20409;-84
2022/12/30 02:47:03;;;;;;;44.40;5.68;;;;;;;;;;6149410;23;20048;-83
2022/12/30 02:49:31;;;;;;;52.85;5.68;;;;;;;;;;6149864;23;20128;-82
2022/12/30 02:52:15;;;;;;;42.78;5.50;;;;;;;;;;6149596;23;20036;-82
2022/12/30 02:54:43;;;;;;;46.88;5.85;;;;;;;;;;6149739;23;20028;-83
2022/12/30 02:57:24;;;;;;;38.92;6.57;;;;;;;;;;6149858;23;20025;-82
2022/12/30 03:06:05;;;;;;;41.35;5.97;;;;;;;;;;6149810;23;20033;-82
2022/12/30 03:08:44;;;;;;;51.80;5.65;;;;;;;;;;6150479;23;20088;-82
2022/12/30 03:11:18;;;;;;;43.20;6.30;;;;;;;;;;6150235;23;20132;-82
2022/12/30 03:14:01;;;;;;;40.05;6.07;;;;;;;;;;6151595;23;20064;-82
2022/12/30 03:16:32;;;;;;;38.92;4.75;;;;;;;;;;6150135;23;20657;-82
2022/12/30 03:19:06;;;;;;;52.67;6.75;;;;;;;;;;6149355;23;20105;-83
2022/12/30 03:21:36;;;;;;;51.97;6.97;;;;;;;;;;6150968;23;20101;-82
2022/12/30 03:27:04;;;;;;;31.75;5.25;;;;;;;;;;6149469;23;20307;-83
2022/12/30 03:29:31;;;;;;;33.47;5.22;;;;;;;;;;6149236;23;20037;-82
2022/12/30 03:32:07;;;;;;;36.88;5.40;;;;;;;;;;6150159;23;20669;-83
2022/12/30 03:34:34;;;;;;;37.00;4.60;;;;;;;;;;6149684;23;20554;-82
2022/12/30 03:37:20;;;;;;;27.67;5.45;;;;;;;;;;6148724;23;20048;-84
2022/12/30 03:40:00;;;;;;;32.00;5.78;;;;;;;;;;6150516;23;20108;-82
2022/12/30 03:42:34;;;;;;;28.40;5.63;;;;;;;;;;6150076;23;20100;-84
2022/12/30 03:45:08;;;;;;;39.97;6.25;;;;;;;;;;6149101;23;20097;-85
2022/12/30 03:47:42;;;;;;;34.13;5.47;;;;;;;;;;6150173;23;20025;-85
2022/12/30 03:50:10;;;;;;;35.75;5.32;;;;;;;;;;6148729;23;20076;-85
2022/12/30 03:52:37;;;;;;;;;;;;;;;;;;6124056;23;20096;-85
2022/12/30 03:55:10;;;;;;;40.67;4.85;;;;;;;;;;6149555;23;19924;-85
2022/12/30 03:57:37;;;;;;;30.38;5.72;;;;;;;;;;6149084;23;20108;-86
2022/12/30 04:00:11;;;;;;;41.60;6.38;;;;;;;;;;6148291;23;20053;-86
2022/12/30 04:02:39;;;;;;;;;;;;;;;;;;6151027;23;20063;-85
2022/12/30 04:05:07;;;;;;;41.25;5.75;;;;;;;;;;6149573;23;19924;-84
2022/12/30 04:07:40;;;;;;;33.05;5.60;;;;;;;;;;6124869;23;20097;-82
2022/12/30 04:10:07;;;;;;;41.45;5.30;;;;;;;;;;6149738;23;20060;-82
2022/12/30 04:12:41;;;;;;;21.83;4.20;;;;;;;;;;6150646;23;20097;-84
2022/12/30 04:15:08;;;;;;;30.83;4.30;;;;;;;;;;6149978;23;20064;-83
2022/12/30 04:17:36;;;;;;;22.35;3.35;;;;;;;;;;6150214;23;20104;-85
2022/12/30 04:20:09;;;;;;;28.50;4.47;;;;;;;;;;6124420;23;20105;-83
2022/12/30 04:22:36;;;;;;;22.73;4.63;;;;;;;;;;6148680;23;20101;-82
2022/12/30 04:25:10;;;;;;;24.67;3.83;;;;;;;;;;6148699;23;20076;-81
2022/12/30 04:27:37;;;;;;;26.15;4.55;;;;;;;;;;6150697;23;20093;-83
2022/12/30 04:30:05;;;;;;;32.35;4.38;;;;;;;;;;6149263;23;20029;-81
2022/12/30 04:32:38;;;;;;;30.52;5.00;;;;;;;;;;6151306;23;20043;-82
2022/12/30 04:35:05;;;;;;;30.05;4.15;;;;;;;;;;6150030;23;20056;-83
2022/12/30 04:37:39;;;;;;;36.13;3.85;;;;;;;;;;6149780;23;20100;-81
2022/12/30 04:40:07;;;;;;;32.42;3.92;;;;;;;;;;6149455;23;20108;-82
2022/12/30 04:42:34;;;;;;;;;;;;;;;;;;6149407;23;20029;-82
2022/12/30 04:45:14;;;;;;;23.63;3.58;;;;;;;;;;6148900;23;19963;-82
2022/12/30 04:47:41;;;;;;;21.52;3.20;;;;;;;;;;6150954;23;20029;-81
2022/12/30 04:50:15;;;;;;;25.88;3.40;;;;;;;;;;6150024;23;20030;-81
2022/12/30 04:52:42;;;;;;;30.55;3.58;;;;;;;;;;6150380;23;20024;-81
2022/12/30 04:55:09;;;;;;;23.45;3.47;;;;;;;;;;6149045;23;20414;-82
2022/12/30 04:57:43;;;;;;;28.73;3.90;;;;;;;;;;6148488;23;20026;-82
2022/12/30 05:00:11;;;;;;;26.50;3.15;;;;;;;;;;6122751;23;20024;-82
2022/12/30 05:02:45;;;;;;;17.40;3.10;;;;;;;;;;6124445;23;20356;-81
2022/12/30 05:05:13;;;;;;;20.70;3.17;;;;;;;;;;6148580;23;20474;-84
2022/12/30 05:07:40;;;;;;;18.67;2.75;;;;;;;;;;6148600;23;20037;-84
2022/12/30 05:10:13;;;;;;;22.55;3.25;;;;;;;;;;6148784;23;20060;-84
2022/12/30 05:12:40;;;;;;;22.23;2.80;;;;;;;;;;6148867;23;20026;-86
2022/12/30 05:15:14;;;;;;;24.95;3.05;;;;;;;;;;6147602;23;20060;-84
2022/12/30 05:17:41;;;;;;;23.00;3.45;;;;;;;;;;6149482;23;20025;-81
2022/12/30 05:20:09;;;;;;;24.10;3.15;;;;;;;;;;6148288;23;20025;-81
2022/12/30 05:22:42;;;;;;;27.42;3.17;;;;;;;;;;6150008;23;20036;-80
2022/12/30 05:28:02;;;;;;;20.77;3.60;;;;;;;;;;6147519;23;20100;-80
2022/12/30 05:30:29;;;;;;;26.33;4.35;;;;;;;;;;6148489;23;20121;-80
2022/12/30 05:32:56;;;;;;;30.48;3.38;;;;;;;;;;6148166;23;20104;-82
2022/12/30 05:35:30;;;;;;;23.98;3.00;;;;;;;;;;6148666;23;20096;-82
2022/12/30 05:37:57;;;;;;;22.67;2.70;;;;;;;;;;6149516;23;20108;-81
2022/12/30 05:40:31;;;;;;;25.98;3.90;;;;;;;;;;6148177;23;20079;-82
2022/12/30 05:43:11;;;;;;;19.85;3.28;;;;;;;;;;6148718;23;20100;-82
2022/12/30 05:45:45;;;;;;;19.80;2.80;;;;;;;;;;6119254;23;20461;-82
2022/12/30 05:48:12;;;;;;;24.73;3.10;;;;;;;;;;6118152;23;20026;-81
2022/12/30 05:50:40;;;;;;;27.05;3.58;;;;;;;;;;6117561;23;20104;-81
2022/12/30 05:53:20;;;;;;;24.83;3.83;;;;;;;;;;6118393;23;20542;-83
2022/12/30 05:55:54;;;;;;;26.55;3.88;;;;;;;;;;6094243;23;20028;-82
2022/12/30 05:58:21;;;;;;;22.52;3.83;;;;;;;;;;6115774;23;20065;-83
2022/12/30 06:00:48;;;;;;;32.28;3.55;;;;;;;;;;6115090;23;20451;-82
2022/12/30 06:03:22;;;;;;;21.08;3.05;;;;;;;;;;6117617;23;20060;-82
2022/12/30 06:05:55;;;;;;;21.98;3.85;;;;;;;;;;6117866;23;20120;-83
2022/12/30 06:08:29;;;;;;;26.48;3.75;;;;;;;;;;6113865;23;20076;-83
2022/12/30 06:10:56;;;;;;;29.05;4.45;;;;;;;;;;6116956;23;20105;-83
2022/12/30 06:13:23;;;;;;;19.98;3.83;;;;;;;;;;6089530;23;20025;-82
2022/12/30 06:15:57;;;;;;;37.17;3.67;;;;;;;;;;6116595;23;20109;-82
2022/12/30 06:18:25;;;;;;;15.75;2.55;;;;;;;;;;6119060;23;20053;-82
2022/12/30 06:20:59;;;;;;;24.95;3.33;;;;;;;;;;6119540;23;20025;-82
2022/12/30 06:23:26;;;;;;;22.02;2.47;;;;;;;;;;6121639;23;20355;-82
2022/12/30 06:25:57;;;;;;;33.97;4.47;;;;;;;;;;6121221;23;20727;-82
2022/12/30 06:28:31;;;;;;;22.65;2.42;;;;;;;;;;6121388;23;20032;-82
2022/12/30 06:30:58;;;;;;;21.85;3.33;;;;;;;;;;6120623;23;20033;-82
2022/12/30 06:33:26;;;;;;;20.52;2.80;;;;;;;;;;6120268;23;20029;-82
2022/12/30 06:35:59;;;;;;;28.38;2.95;;;;;;;;;;6119720;23;20497;-83
2022/12/30 06:38:26;;;;;;;23.75;3.63;;;;;;;;;;6120010;23;20049;-82
2022/12/30 06:41:00;;;;;;;26.50;3.10;;;;;;;;;;6120639;23;20045;-83
2022/12/30 06:43:40;;;;;;;27.45;3.20;;;;;;;;;;6124810;23;20064;-82
2022/12/30 06:46:14;;;;;;;28.88;2.92;;;;;;;;;;6150286;23;20056;-83
2022/12/30 06:48:41;;;;;;;22.92;3.47;;;;;;;;;;6149851;23;20025;-82
2022/12/30 06:51:08;;;;;;;23.35;3.08;;;;;;;;;;6123571;23;20028;-83
2022/12/30 06:53:42;;;;;;;33.05;3.45;;;;;;;;;;6150076;23;20419;-82
2022/12/30 06:56:09;;;;;;;23.52;3.17;;;;;;;;;;6149890;23;20057;-82
2022/12/30 06:58:43;;;;;;;16.92;2.75;;;;;;;;;;6150582;23;20479;-82
2022/12/30 07:01:10;;;;;;;23.20;3.63;;;;;;;;;;6148918;23;20033;-83
2022/12/30 07:03:38;;;;;;;26.50;4.05;;;;;;;;;;6150422;23;20026;-83
2022/12/30 07:06:12;;;;;;;28.20;3.22;;;;;;;;;;6150761;23;20022;-83
2022/12/30 07:08:39;;;;;;;22.95;3.70;;;;;;;;;;6150148;23;20080;-82
2022/12/30 07:11:13;;;;;;;25.33;3.17;;;;;;;;;;6149687;23;20122;-82
2022/12/30 07:13:40;;;;;;;28.48;3.40;;;;;;;;;;6146482;23;20017;-83
2022/12/30 07:16:08;;;;;;;30.90;3.25;;;;;;;;;;6148613;23;20101;-82
2022/12/30 07:18:42;;;;;;;23.65;3.50;;;;;;;;;;6148864;23;20096;-81
2022/12/30 07:21:09;;;;;;;30.20;3.10;;;;;;;;;;6149055;23;20408;-81
2022/12/30 07:23:43;;;;;;;29.48;3.08;;;;;;;;;;6149651;23;20045;-81
2022/12/30 07:26:10;;;;;;;23.48;2.72;;;;;;;;;;6150450;23;20056;-81
2022/12/30 07:28:37;;;;;;;34.25;3.30;;;;;;;;;;6150074;23;20469;-81
2022/12/30 07:31:18;;;;;;;20.63;2.60;;;;;;;;;;6150457;23;20026;-82
2022/12/30 07:33:46;;;;;;;27.00;2.28;;;;;;;;;;6149208;23;20021;-82
2022/12/30 07:36:20;;;;;;;13.80;2.60;;;;;;;;;;6149013;23;20057;-81
2022/12/30 07:38:47;;;;;;;20.90;2.53;;;;;;;;;;6149354;23;20108;-82
2022/12/30 07:41:14;;;;;;;15.48;2.20;;;;;;;;;;6150159;23;20092;-81
2022/12/30 07:44:01;;;;;;;22.30;2.22;;;;;;;;;;6149453;23;20346;-82
2022/12/30 07:46:36;;;;;;;21.25;2.60;;;;;;;;;;6149645;23;20116;-82
2022/12/30 07:49:10;;;;;;;16.15;2.53;;;;;;;;;;6149385;23;20084;-81
2022/12/30 07:51:38;;;;;;;17.98;2.50;;;;;;;;;;6150400;23;20029;-82
2022/12/30 07:54:06;;;;;;;16.73;2.13;;;;;;;;;;6151294;23;20023;-82
2022/12/30 07:56:39;;;;;;;13.55;2.15;;;;;;;;;;6150293;23;20028;-82
2022/12/30 07:59:06;;;;;;;20.17;2.50;;;;;;;;;;6150708;23;20096;-82
2022/12/30 08:01:40;;;;;;;17.85;2.67;;;;;;;;;;6150595;23;20057;-81
2022/12/30 08:04:08;;;;;;;30.27;3.10;;;;;;;;;;6149082;23;20061;-82
2022/12/30 08:06:55;;;;;;;13.75;2.50;;;;;;;;;;6149546;23;20463;-82
2022/12/30 08:09:28;;;;;;;20.33;2.53;;;;;;;;;;6149644;23;20051;-82
2022/12/30 08:11:55;;;;;;;16.52;2.65;;;;;;;;;;6149016;23;20100;-82
2022/12/30 08:14:29;;;;;;;23.38;2.05;;;;;;;;;;6150031;23;20395;-80
2022/12/30 08:16:56;;;;;;;27.55;3.30;;;;;;;;;;6150359;23;20021;-82
2022/12/30 08:19:23;;;;;;;23.63;3.00;;;;;;;;;;6148903;23;20068;-83
2022/12/30 08:21:57;;;;;;;24.92;3.63;;;;;;;;;;6149923;23;20491;-83
2022/12/30 08:24:24;;;;;;;34.13;3.28;;;;;;;;;;6150271;23;20076;-84
2022/12/30 08:26:58;;;;;;;21.17;2.80;;;;;;;;;;6146571;23;20124;-82
2022/12/30 08:29:25;;;;;;;25.63;2.63;;;;;;;;;;6149580;23;20059;-82
2022/12/30 08:31:52;;;;;;;24.67;3.33;;;;;;;;;;6147537;23;20029;-82
2022/12/30 08:34:26;;;;;;;24.85;2.60;;;;;;;;;;6147358;23;20394;-82
2022/12/30 08:36:53;;;;;;;24.60;3.95;;;;;;;;;;6150710;23;20417;-83
2022/12/30 08:39:21;;;;;;;21.67;2.83;;;;;;;;;;6150125;23;20100;-83
2022/12/30 08:41:54;;;;;;;22.73;2.78;;;;;;;;;;6148114;23;20052;-82
2022/12/30 08:44:36;;;;;;;17.70;2.88;;;;;;;;;;6148920;23;20029;-82
2022/12/30 08:47:10;;;;;;;24.63;2.72;;;;;;;;;;6149766;23;20032;-82
2022/12/30 08:49:37;;;;;;;24.15;3.03;;;;;;;;;;6149852;23;20667;-82
2022/12/30 08:52:11;;;;;;;24.02;3.08;;;;;;;;;;6148911;23;20054;-82
2022/12/30 08:54:38;;;;;;;21.42;2.50;;;;;;;;;;6149571;23;20057;-82
2022/12/30 08:57:07;;;;;;;20.75;2.42;;;;;;;;;;6147347;23;20255;-82
2022/12/30 08:59:41;;;;;;;21.27;2.30;;;;;;;;;;6150363;23;20531;-83
2022/12/30 09:02:11;;;;;;;21.80;2.75;;;;;;;;;;6148164;23;20133;-83
2022/12/30 09:04:44;;;;;;;19.13;2.30;;;;;;;;;;6150650;23;20021;-82
2022/12/30 09:07:11;;;;;;;14.90;2.17;;;;;;;;;;6148573;23;20065;-82
2022/12/30 09:09:59;;;;;;;34.20;3.63;;;;;;;;;;6148452;23;20021;-83
2022/12/30 09:12:32;;;;;;;27.27;3.25;;;;;;;;;;6148775;23;20111;-82
2022/12/30 09:14:59;;;;;;;21.00;2.47;;;;;;;;;;6149031;23;20099;-82
2022/12/30 09:17:33;;;;;;;26.48;3.80;;;;;;;;;;6149723;23;20091;-83
2022/12/30 09:20:00;;;;;;;24.55;2.65;;;;;;;;;;6144096;23;20096;-83
2022/12/30 09:22:27;;;;;;;20.70;2.63;;;;;;;;;;6148290;23;20025;-83
2022/12/30 09:25:01;;;;;;;20.92;2.45;;;;;;;;;;6146585;23;20092;-83
2022/12/30 09:27:28;;;;;;;27.75;3.55;;;;;;;;;;6146806;23;20100;-83
2022/12/30 09:30:02;;;;;;;17.33;2.28;;;;;;;;;;6148424;23;20060;-83
2022/12/30 09:32:29;;;;;;;20.50;2.00;;;;;;;;;;6149866;23;20072;-83
2022/12/30 09:34:56;;;;;;;27.10;2.58;;;;;;;;;;6148220;23;20100;-83
2022/12/30 09:37:30;;;;;;;26.17;2.85;;;;;;;;;;6149869;23;20060;-83
2022/12/30 09:39:57;;;;;;;14.15;2.17;;;;;;;;;;6148055;23;20112;-83
2022/12/30 09:45:41;;;;;;;13.90;2.30;;;;;;;;;;6148175;23;20096;-83
2022/12/30 09:48:25;;;;;;;17.92;2.42;;;;;;;;;;6121745;23;20044;-82
2022/12/30 09:50:55;;;;;;;17.98;2.30;;;;;;;;;;6148242;23;20130;-82
2022/12/30 09:53:31;;;;;;;14.77;1.98;;;;;;;;;;6146866;23;20104;-82
2022/12/30 09:56:01;;;;;;;14.05;2.42;;;;;;;;;;6145787;23;20026;-83
2022/12/30 09:58:33;;;;;;;19.70;2.30;;;;;;;;;;6148850;23;20549;-83
2022/12/30 10:01:07;;;;;;;11.15;2.03;;;;;;;;;;6147831;23;20295;-83
2022/12/30 10:03:34;;;;;;;11.18;1.92;;;;;;;;;;6148240;23;20471;-83
2022/12/30 10:06:25;;;;;;;12.45;1.98;;;;;;;;;;6146840;23;20490;-83
2022/12/30 10:09:18;;;;;;;10.43;2.08;;;;;;;;;;6148657;23;20049;-82
2022/12/30 10:11:58;;;;;;;11.25;2.17;;;;;;;;;;6147503;23;20025;-83
2022/12/30 10:14:46;;;;;;;12.98;2.08;;;;;;;;;;6148068;23;20049;-82
2022/12/30 10:17:45;;;;;;;12.32;2.10;;;;;;;;;;6148640;23;20096;-82
2022/12/30 10:20:22;;;;;;;11.68;2.20;;;;;;;;;;6148703;23;20100;-82
2022/12/30 10:23:01;;;;;;;12.95;1.58;;;;;;;;;;6148477;23;20132;-82
2022/12/30 10:25:42;;;;;;;15.75;2.28;;;;;;;;;;6147778;23;20100;-82
2022/12/30 10:28:11;;;;;;;15.85;2.40;;;;;;;;;;6146518;23;20355;-82
2022/12/30 10:30:47;;;;;;;21.10;2.50;;;;;;;;;;6148926;23;20109;-82
2022/12/30 10:33:19;;;;;;;17.52;2.80;;;;;;;;;;6147965;23;20056;-82
2022/12/30 10:36:03;;;;;;;15.23;2.40;;;;;;;;;;6149327;23;20017;-82
2022/12/30 10:38:44;;;;;;;21.38;3.28;;;;;;;;;;6149810;23;20081;-82
2022/12/30 10:41:49;;;;;;;15.60;2.97;;;;;;;;;;6149465;23;20112;-83
2022/12/30 10:44:26;;;;;;;13.75;2.15;;;;;;;;;;6125327;23;20419;-83
2022/12/30 10:47:06;;;;;;;20.63;3.13;;;;;;;;;;6150337;23;20026;-82
2022/12/30 10:49:53;;;;;;;17.50;2.83;;;;;;;;;;6059738;23;24584;-82
2022/12/30 10:52:27;;;;;;;24.98;2.55;;;;;;;;;;6077166;23;20109;-82
2022/12/30 10:54:54;;;;;;;17.90;3.40;;;;;;;;;;6144389;23;20057;-82
2022/12/30 10:59:34;;;;;;;22.77;2.83;;;;;;;;;;4768422;27;8190408;-61
2022/12/30 11:02:15;;;;;;;22.35;2.92;;;;;;;;;;5047248;28;20067;-62
2022/12/30 11:04:43;;;;;;;24.58;3.00;;;;;;;;;;5045398;28;20511;-48
2022/12/30 11:07:17;;;;;;;21.52;2.90;;;;;;;;;;5046599;28;20048;-52
2022/12/30 11:09:45;;;;;;;17.90;2.58;;;;;;;;;;5051689;28;20140;-48
2022/12/30 11:15:24;;;;;;;25.10;2.88;;;;;;;;;;5051702;28;20163;-47
2022/12/30 11:17:58;;;;;;;17.58;3.30;;;;;;;;;;5048569;28;20034;-49
2022/12/30 11:20:28;;;;;;;22.48;4.10;;;;;;;;;;5051561;28;20052;-49
2022/12/30 11:23:08;;;;;;;27.38;3.55;;;;;;;;;;5048513;28;20135;-62
2022/12/30 11:25:35;;;;;;;33.13;4.40;;;;;;;;;;5052282;28;20053;-62
2022/12/30 11:28:15;;;;;;;30.15;3.83;;;;;;;;;;5047729;28;20703;-62
2022/12/30 11:30:52;;;;;;;24.15;3.67;;;;;;;;;;5047645;28;20049;-62
2022/12/30 11:33:28;;;;;;;35.45;5.03;;;;;;;;;;5045634;28;20136;-61
2022/12/30 11:36:09;;;;;;;42.63;4.55;;;;;;;;;;5050662;28;20695;-61
2022/12/30 11:38:47;;;;;;;48.47;4.70;;;;;;;;;;5047280;28;20462;-62
2022/12/30 11:41:17;;;;;;;45.83;5.18;;;;;;;;;;5048714;28;20128;-60
2022/12/30 11:43:59;;;;;;;32.67;3.92;;;;;;;;;;5047982;28;20475;-61
2022/12/30 11:46:35;;;;;;;35.50;5.15;;;;;;;;;;5046553;28;20127;-60
2022/12/30 11:49:17;;;;;;;40.55;5.38;;;;;;;;;;5048741;28;20505;-60
2022/12/30 11:51:51;;;;;;;38.55;4.93;;;;;;;;;;5048278;28;20048;-60
2022/12/30 11:54:19;;;;;;;29.30;4.43;;;;;;;;;;5048004;28;21671;-60
2022/12/30 11:56:52;;;;;;;34.70;5.40;;;;;;;;;;5044114;28;20081;-59
2022/12/30 11:59:36;;;;;;;49.08;6.38;;;;;;;;;;5062140;28;20575;-53
2022/12/30 12:02:18;;;;;;;46.33;5.68;;;;;;;;;;5063917;28;20047;-64
2022/12/30 12:04:46;;;;;;;54.60;6.53;;;;;;;;;;5046637;28;20049;-64
2022/12/30 12:07:30;;;;;;;57.40;5.80;;;;;;;;;;5069011;28;20047;-64
2022/12/30 12:10:20;;;;;;;32.30;5.80;;;;;;;;;;5057579;28;20199;-65
2022/12/30 12:12:59;;;;;;;47.28;5.75;;;;;;;;;;5049570;28;20049;-64
2022/12/30 12:15:45;;;;;;;51.60;6.13;;;;;;;;;;5051269;28;20057;-64
2022/12/30 12:18:37;;;;;;;62.22;6.35;;;;;;;;;;5054403;28;20045;-62
2022/12/30 12:21:18;;;;;;;47.63;5.65;;;;;;;;;;5053750;28;20167;-64
2022/12/30 12:23:54;;;;;;;49.03;5.60;;;;;;;;;;5052833;28;20135;-64
2022/12/30 12:26:32;;;;;;;53.88;6.35;;;;;;;;;;5052356;28;20158;-64
2022/12/30 12:28:59;;;;;;;32.63;5.20;;;;;;;;;;5056205;28;20045;-64
2022/12/30 12:31:45;;;;;;;43.65;6.32;;;;;;;;;;5053157;28;20125;-64
2022/12/30 12:34:34;;;;;;;47.50;5.07;;;;;;;;;;5054720;28;20045;-65
2022/12/30 12:37:10;;;;;;;49.92;5.68;;;;;;;;;;5055152;28;20057;-61
2022/12/30 12:39:44;;;;;;;42.35;5.80;;;;;;;;;;5052134;28;20492;-61
2022/12/30 12:42:23;;;;;;;52.70;5.80;;;;;;;;;;5049207;28;20056;-61
2022/12/30 12:44:58;;;;;;;54.53;5.78;;;;;;;;;;5053610;28;20415;-61
2022/12/30 12:47:38;;;;;;;50.28;5.72;;;;;;;;;;5053556;28;20420;-62
2022/12/30 12:50:05;;;;;;;37.78;4.95;;;;;;;;;;5057036;28;20059;-61
2022/12/30 12:52:58;;;;;;;42.83;5.93;;;;;;;;;;5056308;28;20040;-61
2022/12/30 12:55:50;;;;;;;38.22;5.45;;;;;;;;;;5056007;28;20041;-51
2022/12/30 12:58:47;;;;;;;46.30;4.55;;;;;;;;;;5048495;28;20516;-49
2022/12/30 13:01:31;;;;;;;54.70;7.50;;;;;;;;;;5050373;28;20045;-50
2022/12/30 13:04:19;;;;;;;47.42;5.38;;;;;;;;;;5048696;28;20895;-51
2022/12/30 13:07:00;;;;;;;52.25;6.55;;;;;;;;;;5047915;28;20045;-53
2022/12/30 13:09:50;;;;;;;45.50;5.60;;;;;;;;;;5051955;28;20048;-48
2022/12/30 13:12:39;;;;;;;60.92;7.35;;;;;;;;;;5054402;28;20056;-60
2022/12/30 13:15:18;;;;;;;59.28;6.05;;;;;;;;;;5048331;28;20048;-61
2022/12/30 13:17:54;;;;;;;44.92;6.05;;;;;;;;;;5048538;28;20047;-53
2022/12/30 13:20:25;;;;;;;40.00;6.35;;;;;;;;;;5053953;28;20696;-49
2022/12/30 13:22:59;;;;;;;57.50;6.80;;;;;;;;;;5049484;28;20053;-48
2022/12/30 13:25:32;;;;;;;48.70;8.07;;;;;;;;;;5049839;28;20055;-50
2022/12/30 13:28:07;;;;;;;55.22;5.38;;;;;;;;;;5048221;28;20062;-53
2022/12/30 13:30:40;;;;;;;48.22;5.97;;;;;;;;;;5049570;28;20125;-64
2022/12/30 13:33:33;;;;;;;50.38;5.68;;;;;;;;;;5045165;28;20171;-61
2022/12/30 13:36:04;;;;;;;46.83;6.18;;;;;;;;;;5050286;28;20040;-64
2022/12/30 13:38:59;;;;;;;43.30;6.13;;;;;;;;;;5047129;28;20053;-64
2022/12/30 13:41:34;;;;;;;41.80;4.80;;;;;;;;;;5038583;28;20520;-63
2022/12/30 13:44:12;;;;;;;40.55;5.00;;;;;;;;;;5055844;28;20062;-64
2022/12/30 13:46:46;;;;;;;45.83;6.03;;;;;;;;;;5054354;28;20054;-64
2022/12/30 13:49:27;;;;;;;54.60;6.68;;;;;;;;;;5047810;28;20412;-60
2022/12/30 13:51:59;;;;;;;44.20;6.00;;;;;;;;;;5051055;28;20094;-60
2022/12/30 13:54:36;;;;;;;44.60;5.80;;;;;;;;;;5048327;28;20048;-64
2022/12/30 13:57:03;;;;;;;44.72;5.53;;;;;;;;;;5052951;28;20535;-64
2022/12/30 13:59:31;;;;;;;;;;;;;;;;;;5051160;28;20145;-64
2022/12/30 14:02:25;;;;;;;47.47;5.70;;;;;;;;;;5049828;28;19936;-64
2022/12/30 14:04:53;;;;;;;47.80;6.53;;;;;;;;;;5020482;28;20118;-64
2022/12/30 14:07:41;;;;;;;48.45;5.85;;;;;;;;;;5050829;28;20098;-60
2022/12/30 14:10:17;;;;;;;50.38;5.13;;;;;;;;;;5056086;28;20495;-59
2022/12/30 14:12:54;;;;;;;38.53;5.63;;;;;;;;;;5053469;28;20072;-60
2022/12/30 14:15:33;;;;;;;41.72;5.18;;;;;;;;;;5053164;28;20041;-60
2022/12/30 14:18:17;;;;;;;55.22;6.25;;;;;;;;;;5048920;28;20048;-59
2022/12/30 14:20:53;;;;;;;54.60;5.97;;;;;;;;;;5055085;28;20055;-60
2022/12/30 14:23:32;;;;;;;46.20;5.97;;;;;;;;;;5053188;28;20504;-60
2022/12/30 14:26:17;;;;;;;45.65;5.90;;;;;;;;;;5050989;28;20041;-64
2022/12/30 14:28:51;;;;;;;48.50;5.88;;;;;;;;;;5053547;28;20044;-60
2022/12/30 14:31:27;;;;;;;56.13;6.10;;;;;;;;;;5052596;28;20053;-59
2022/12/30 14:34:02;;;;;;;55.20;5.43;;;;;;;;;;5045363;28;20472;-60
2022/12/30 14:36:33;;;;;;;38.58;5.55;;;;;;;;;;5054716;28;20533;-62
2022/12/30 14:39:02;;;;;;;52.35;4.93;;;;;;;;;;5047964;28;20116;-59
2022/12/30 14:41:36;;;;;;;43.45;4.72;;;;;;;;;;5055378;28;20100;-60
2022/12/30 14:44:05;;;;;;;44.45;5.28;;;;;;;;;;5054857;28;20052;-64
2022/12/30 14:46:41;;;;;;;53.25;5.45;;;;;;;;;;5051910;28;20044;-60
2022/12/30 14:49:31;;;;;;;55.58;5.70;;;;;;;;;;5057188;28;20059;-60
2022/12/30 14:52:10;;;;;;;49.00;5.43;;;;;;;;;;5052752;28;20118;-61
2022/12/30 14:54:48;;;;;;;65.13;6.65;;;;;;;;;;5051550;28;20659;-59
2022/12/30 14:57:23;;;;;;;46.75;6.25;;;;;;;;;;5054456;28;20057;-60
2022/12/30 14:59:57;;;;;;;43.90;5.68;;;;;;;;;;5051851;28;20175;-58
2022/12/30 15:02:44;;;;;;;43.08;5.35;;;;;;;;;;5048194;28;20095;-48
2022/12/30 15:05:14;;;;;;;41.13;5.50;;;;;;;;;;5052221;28;20045;-50
2022/12/30 15:07:54;;;;;;;189.77;87.30;;;;;;;;;;5045451;28;20464;-55
2022/12/30 15:10:26;;;;;;;74.88;23.00;;;;;;;;;;5057219;28;20044;-56
2022/12/30 15:13:04;;;;;;;55.17;8.48;;;;;;;;;;5054571;28;20068;-58
2022/12/30 15:15:38;;;;;;;50.03;6.07;;;;;;;;;;5042119;28;20059;-58
2022/12/30 15:18:38;;;;;;;54.30;9.80;;;;;;;;;;5052606;28;20052;-58
2022/12/30 15:21:28;;;;;;;49.25;7.40;;;;;;;;;;5014637;28;20159;-61
2022/12/30 15:24:02;;;;;;;53.92;7.25;;;;;;;;;;5045336;28;20053;-61
2022/12/30 15:26:34;;;;;;;45.95;11.48;;;;;;;;;;5053857;28;20055;-61
2022/12/30 15:29:15;;;;;;;59.67;8.85;;;;;;;;;;5048885;28;20187;-61
2022/12/30 15:31:48;;;;;;;61.00;9.02;;;;;;;;;;5048034;28;20055;-61
2022/12/30 15:34:24;;;;;;;42.13;6.70;;;;;;;;;;5049007;28;20160;-61
2022/12/30 15:36:52;;;;;;;64.90;8.48;;;;;;;;;;5054302;28;20510;-61
2022/12/30 15:39:19;;;;;;;;;;;;;;;;;;5049524;28;20050;-57
2022/12/30 15:41:54;;;;;;;47.17;6.72;;;;;;;;;;5049764;28;19935;-64
2022/12/30 15:44:21;;;;;;;47.72;8.05;;;;;;;;;;5049601;28;20060;-50
2022/12/30 15:47:00;;;;;;;60.63;6.88;;;;;;;;;;5051765;28;20053;-47
2022/12/30 15:49:48;;;;;;;65.28;21.77;;;;;;;;;;5054696;28;20610;-48
2022/12/30 15:52:15;;;;;;;60.83;8.38;;;;;;;;;;5053662;28;21340;-52
2022/12/30 15:54:51;;;;;;;63.55;11.32;;;;;;;;;;5058909;28;20135;-50
2022/12/30 15:57:30;;;;;;;48.33;7.28;;;;;;;;;;5058119;28;20048;-50
2022/12/30 16:00:14;;;;;;;59.05;8.20;;;;;;;;;;5055284;28;20060;-61
2022/12/30 16:02:50;;;;;;;53.55;8.38;;;;;;;;;;5056192;28;20328;-52
2022/12/30 16:05:21;;;;;;;53.03;8.88;;;;;;;;;;5054642;28;20045;-51
2022/12/30 16:08:10;;;;;;;44.20;6.90;;;;;;;;;;5059261;28;20062;-51